Annette Island, AK

10:52 AM AKST on February 12, 2016 (GMT -0900)
Annette Island | | Change Station
CLOSE
Current Station
Airport
Location: Annette Island,
Elevation: 112 ft
Nearby Weather Stations

Elev 112 ft 55.04 °N, 131.57 °W | Updated 47 minutes ago

Light Rain
Light Rain
45 °F
Feels Like 41 °F
N
8
Wind Variable Wind from SE

Today
High -- | Low -- °F
--% Chance of Precip.
Yesterday
High -- | Low -- °F
Precip. -- in
Pressure 29.81 in
Visibility 10.0 miles
Clouds Scattered Clouds 1200 ft
Mostly Cloudy 2300 ft
Overcast 4200 ft
Windchill 41 °F
Dew Point 43 °F
Humidity 93%
Rainfall 0.22 in
Snow Depth Not available.
7:15 AM 4:45 PM
Waxing Crescent, 23% visible
SPECI PANT 121905Z AUTO 13007KT 10SM -RA SCT012 BKN023 OVC042 07/06 A2981 RMK AO2 P0000 T00720061 TSNO
Pressure 29.81 in
Visibility 10.0 miles
Clouds Scattered Clouds 1200 ft
Mostly Cloudy 2300 ft
Overcast 4200 ft
Windchill 41 °F
Dew Point 43 °F
Humidity 93%
Rainfall 0.22 in
Snow Depth Not available.
7:15 AM 4:45 PM
Waxing Crescent, 23% visible
SPECI PANT 121905Z AUTO 13007KT 10SM -RA SCT012 BKN023 OVC042 07/06 A2981 RMK AO2 P0000 T00720061 TSNO

10-Day Weather Forecast

Almanac

Astronomy

Feb. 12, 2016 Rise Set
Actual Time
Civil Twilight
Nautical Twilight
Astronomical Twilight
Moon
Length of Visible Light
Length of Day
Tomorrow will be .
, % of the Moon is Illuminated

Today's Extremes

State Highs State Lows

Community

WunderPhotos

Upload Photos

1,892,381 photos uploaded!

WunderBlog® & News

Nearby

Air Quality

  Air Quality AQ Index Pollutant
Not available.

Snow Depth

Station Depth Elevation

Earthquake Activity

City Distance Mag. Time & Date
Minimum magnitude displayed is 2.5.

Coastal Water Temperatures

Place Temperature

Stations

Nearby Weather Stations

Station Location Temp. Windchill Dew Point Humidity Wind Precip. Elev Updated Type
                   

Watches & Warnings

There are currently no watches in effect.